Latest Weather Observations for The Monument

IDQ60801

Issued at 12:32 pm EST Thursday 11 February 2016 (issued every 30 minutes, with the page automatically refreshed every 10 minutes)

About weather observations | Map of weather stations | Latest weather observations for QLD | Other Formats
Station Details ID: 037034 Name: THE MONUMENT AIRPORT Lat: -21.81 Lon: 139.93 Height: 288.4 m
Data from the previous 72 hours. | See also: Recent months at The Monument
Date/Time
EST
Temp
°C
App
Temp
°C
Dew
Point
Rel
Hum
%
Delta-T
°C
Wind Press
QNH
hPa
Press
MSL
hPa
Rain
since 9 am
mm
Dir
 
Spd
km/h
Gust
km/h
Spd
kts
Gust
kts
11/12:30pm 35.4 32.3 10.4 22 14.8 SSE 17 26 9 14 1010.2 1008.0 0.0
11/12:00pm 35.4 32.3 11.7 23 14.3 SE 19 33 10 18 1010.5 1008.3 0.0
11/11:30am 35.4 32.9 11.1 23 14.5 ESE 15 28 8 15 1010.8 1008.6 0.0
11/11:00am 34.8 31.9 13.0 26 13.3 E 20 32 11 17 1011.2 1009.0 0.0
11/10:30am 34.2 31.7 14.1 29 12.5 E 20 32 11 17 1011.6 1009.4 0.0
11/10:00am 33.4 31.2 14.5 32 11.8 ENE 19 28 10 15 1011.8 1009.6 0.0
11/09:30am 32.7 31.0 15.7 36 10.7 NE 19 30 10 16 1011.8 1009.6 0.0
11/09:00am 31.3 29.0 15.7 39 9.8 NE 22 33 12 18 1011.7 1009.5 0.0
11/08:30am 30.7 28.5 15.9 40 9.3 NE 22 30 12 16 1011.4 1009.2 0.0
11/08:00am 29.4 27.6 15.5 43 8.7 NNE 19 26 10 14 1011.2 1009.0 0.0
11/07:30am 27.4 27.0 14.1 44 8.0 NNE 9 13 5 7 1011.1 1008.9 0.0
11/07:00am 25.6 27.2 15.0 52 6.5 CALM 0 0 0 0 1010.9 1008.7 0.0
11/06:30am 25.0 26.4 14.5 52 6.3 CALM 0 0 0 0 1010.6 1008.4 0.0
11/06:00am 25.1 26.2 13.6 49 6.8 CALM 0 0 0 0 1010.2 1008.0 0.0
11/05:30am 25.5 26.1 14.3 50 6.7 NE 4 7 2 4 1009.7 1007.5 0.0
11/05:00am 26.1 26.0 13.9 47 7.3 ENE 7 9 4 5 1009.2 1007.0 0.0
11/04:30am 26.6 26.1 13.7 45 7.7 ENE 9 11 5 6 1009.2 1007.0 0.0
11/04:00am 27.8 26.7 13.0 40 8.8 ENE 11 13 6 7 1009.1 1006.9 0.0
11/03:30am 28.7 26.9 13.4 39 9.2 ENE 15 22 8 12 1009.1 1006.9 0.0
11/03:00am 26.8 27.3 15.5 50 7.0 NE 7 11 4 6 1009.2 1007.0 0.0
11/02:30am 27.7 27.9 14.3 43 8.1 NNE 6 9 3 5 1009.0 1006.8 0.0
11/02:00am 28.3 28.2 13.8 41 8.8 NE 7 9 4 5 1009.0 1006.8 0.0
11/01:30am 29.2 28.6 13.4 38 9.5 NNE 9 11 5 6 1009.0 1006.8 0.0
11/01:00am 30.3 29.2 13.1 34 10.4 NE 11 15 6 8 1009.2 1007.0 0.0
11/12:30am 31.5 29.1 12.8 32 11.3 ENE 17 22 9 12 1009.2 1007.0 0.0
11/12:00am 31.5 29.7 13.3 33 11.1 E 15 20 8 11 1009.6 1007.4 0.0
 
Date/Time
EST
Temp
°C
App
Temp
°C
Dew
Point
Rel
Hum
%
Delta-T
°C
Wind Press
QNH
hPa
Press
MSL
hPa
Rain
since 9 am
mm
Dir
 
Spd
km/h
Gust
km/h
Spd
kts
Gust
kts
10/11:30pm 30.9 29.7 14.1 36 10.3 SSE 13 19 7 10 1009.3 1007.2 0.0
10/11:00pm 31.0 29.7 13.7 34 10.5 SSE 13 15 7 8 1009.6 1007.4 0.0
10/10:30pm 31.3 30.0 13.6 34 10.8 SE 13 17 7 9 1009.3 1007.2 0.0
10/10:00pm 32.1 30.3 13.3 31 11.4 SSE 15 20 8 11 1009.2 1007.0 0.0
10/09:30pm 32.2 30.0 13.4 32 11.4 SSE 17 24 9 13 1008.9 1006.7 0.0
10/09:00pm 33.0 30.7 13.1 30 12.1 SSE 17 30 9 16 1008.6 1006.4 0.0
10/08:30pm 34.1 32.2 11.9 26 13.3 ESE 13 17 7 9 1008.1 1005.9 0.0
10/08:00pm 34.5 32.5 11.6 25 13.7 ESE 13 17 7 9 1007.9 1005.7 0.0
10/07:30pm 34.8 32.5 11.9 25 13.8 ESE 15 19 8 10 1007.6 1005.4 0.0
10/07:00pm 35.2 32.5 11.6 24 14.2 ESE 17 26 9 14 1007.4 1005.2 0.0
10/06:30pm 35.7 32.7 10.7 22 14.8 ESE 17 24 9 13 1007.0 1004.8 0.0
10/06:00pm 36.9 34.6 11.7 22 15.3 ESE 15 24 8 13 1006.5 1004.3 0.0
10/05:30pm 37.1 33.7 11.1 21 15.6 ESE 20 30 11 16 1006.4 1004.2 0.0
10/05:00pm 36.8 33.9 10.9 21 15.5 ESE 17 26 9 14 1006.3 1004.1 0.0
10/04:30pm 37.2 34.0 11.9 22 15.4 SE 20 32 11 17 1006.5 1004.3 0.0
10/04:00pm 37.7 34.6 12.3 22 15.6 SE 20 30 11 16 1006.7 1004.5 0.0
10/03:30pm 37.1 35.1 13.8 25 14.5 E 17 24 9 13 1006.8 1004.6 0.0
10/03:00pm 37.7 35.4 13.0 23 15.3 ESE 17 30 9 16 1007.1 1004.9 0.0
10/02:30pm 37.8 35.7 12.4 22 15.6 ESE 15 35 8 19 1007.6 1005.4 0.0
10/02:00pm 36.4 33.0 12.6 24 14.6 ESE 22 33 12 18 1008.1 1005.9 0.0
10/01:30pm 37.1 34.1 12.5 23 15.1 SE 20 28 11 15 1008.7 1006.5 0.0
10/01:00pm 35.9 33.2 13.4 26 13.9 ESE 20 37 11 20 1009.2 1007.0 0.0
10/12:30pm 35.7 34.4 14.9 29 13.1 ESE 15 24 8 13 1009.5 1007.3 0.0
10/12:00pm 35.6 33.4 14.3 28 13.3 ESE 19 32 10 17 1009.9 1007.7 0.0
10/11:30am 35.1 33.3 15.4 30 12.5 ENE 19 26 10 14 1010.2 1008.0 0.0
10/11:00am 34.9 33.2 15.7 31 12.2 E 19 30 10 16 1010.5 1008.3 0.0
10/10:30am 33.6 32.6 16.5 36 10.9 ENE 17 30 9 16 1010.8 1008.6 0.0
10/10:00am 32.7 32.0 17.3 39 9.9 ENE 17 30 9 16 1010.9 1008.7 0.0
10/09:30am 31.4 30.9 17.7 44 8.9 ESE 17 22 9 12 1011.1 1008.9 0.0
10/09:00am 30.7 30.8 18.4 47 8.0 ESE 15 22 8 12 1011.1 1008.9 0.0
10/08:30am 29.8 31.4 19.2 53 7.0 SE 9 13 5 7 1011.1 1008.9 0.0
10/08:00am 29.3 31.5 19.6 56 6.4 E 7 11 4 6 1010.8 1008.6 0.0
10/07:30am 27.8 31.4 19.8 61 5.3 CALM 0 0 0 0 1010.5 1008.3 0.0
10/07:00am 26.2 30.2 20.5 71 3.8 CALM 0 0 0 0 1010.1 1007.9 0.0
10/06:30am 25.2 28.9 20.0 73 3.4 CALM 0 0 0 0 1009.9 1007.7 0.0
10/06:00am 25.2 27.4 19.6 71 3.7 NNE 7 7 4 4 1009.6 1007.4 0.0
10/05:30am 25.8 29.4 19.7 69 4.0 CALM 0 0 0 0 1009.3 1007.2 0.0
10/05:00am 25.9 29.4 19.5 68 4.2 CALM 0 0 0 0 1009.1 1006.9 0.0
10/04:30am 26.3 28.6 19.4 66 4.5 NNE 6 9 3 5 1009.1 1006.9 0.0
10/04:00am 26.4 28.9 19.0 63 4.8 N 4 11 2 6 1009.0 1006.8 0.0
10/03:30am 26.7 28.4 18.6 61 5.2 N 7 9 4 5 1008.8 1006.6 0.0
10/03:00am 27.3 28.2 18.3 58 5.8 N 11 15 6 8 1008.8 1006.6 0.0
10/02:30am 27.9 28.4 18.3 56 6.2 NE 13 19 7 10 1008.9 1006.7 0.0
10/02:00am 28.4 28.7 18.8 56 6.3 NE 15 19 8 10 1008.9 1006.7 0.0
10/01:30am 28.9 28.9 18.9 54 6.5 NE 17 24 9 13 1009.1 1006.9 0.0
10/01:00am 29.4 29.7 19.7 56 6.4 ENE 17 20 9 11 1009.5 1007.3 0.0
10/12:30am 29.8 29.9 19.2 53 7.0 ENE 17 22 9 12 1010.0 1007.8 0.0
10/12:00am 29.8 31.6 19.5 54 6.8 E 9 15 5 8 1010.1 1007.9 0.0
 
Date/Time
EST
Temp
°C
App
Temp
°C
Dew
Point
Rel
Hum
%
Delta-T
°C
Wind Press
QNH
hPa
Press
MSL
hPa
Rain
since 9 am
mm
Dir
 
Spd
km/h
Gust
km/h
Spd
kts
Gust
kts
09/11:30pm 29.4 33.0 19.7 56 6.4 CALM 0 0 0 0 1009.8 1007.6 0.0
09/11:00pm 29.2 31.5 19.5 56 6.4 ESE 6 9 3 5 1009.9 1007.7 0.0
09/10:30pm 29.2 30.8 19.2 54 6.6 E 9 13 5 7 1009.8 1007.6 0.0
09/10:00pm 29.2 32.7 19.5 56 6.4 CALM 0 0 0 0 1009.8 1007.6 0.0
09/09:30pm 29.6 32.9 19.0 53 6.9 CALM 0 6 0 3 1009.6 1007.4 0.0
09/09:00pm 30.0 31.5 18.8 51 7.3 N 9 11 5 6 1009.2 1007.0 0.0
09/08:30pm 30.1 30.7 18.5 49 7.6 N 13 20 7 11 1008.9 1006.7 0.0
09/08:00pm 30.7 31.6 18.4 47 8.0 N 11 19 6 10 1008.9 1006.7 0.0
09/07:30pm 30.5 30.0 18.6 49 7.8 N 19 26 10 14 1008.4 1006.2 0.0
09/07:00pm 30.9 31.3 18.9 48 7.9 N 15 20 8 11 1008.1 1005.9 0.0
09/06:30pm 31.5 32.4 19.2 48 8.1 N 13 20 7 11 1007.7 1005.5 0.0
09/06:00pm 30.7 30.3 19.4 51 7.5 N 20 28 11 15 1007.6 1005.4 0.0
09/05:47pm 30.7 30.1 18.8 49 7.8 NNE 20 32 11 17 1007.5 1005.3 0.0
09/05:30pm 35.7 34.1 14.9 29 13.1 SE 17 22 9 12 1007.2 1005.0 0.0
09/05:00pm 35.9 33.7 14.5 27 13.4 SE 19 30 10 16 1007.1 1004.9 0.0
09/04:30pm 36.3 34.5 15.4 28 13.3 SSE 19 26 10 14 1007.0 1004.8 0.0
09/04:00pm 36.3 34.3 15.4 28 13.3 SSE 20 30 11 16 1007.0 1004.8 0.0
09/03:30pm 37.9 35.6 15.7 27 14.2 S 22 32 12 17 1007.3 1005.1 0.0
09/03:00pm 37.1 36.1 15.5 27 13.8 SSE 15 30 8 16 1007.6 1005.4 0.0
09/02:30pm 37.2 37.4 17.7 31 12.8 SE 13 22 7 12 1008.2 1006.0 0.0
09/02:00pm 36.4 35.9 17.0 31 12.6 ESE 15 22 8 12 1008.9 1006.7 0.0
09/01:30pm 35.5 35.7 16.8 33 12.1 SSE 11 24 6 13 1009.3 1007.2 0.0
09/01:00pm 35.6 34.9 16.4 32 12.4 ESE 15 26 8 14 1009.9 1007.7 0.0
09/12:30pm 35.6 35.3 18.2 35 11.5 SE 17 28 9 15 1010.1 1007.9 0.0
09/12:00pm 34.7 34.4 18.3 38 10.8 ESE 17 28 9 15 1010.5 1008.3 0.0
09/11:30am 34.3 34.0 18.3 38 10.5 ESE 17 26 9 14 1010.9 1008.7 0.0
09/11:00am 33.3 32.9 19.0 42 9.5 SE 19 26 10 14 1011.3 1009.1 0.0
09/10:30am 32.8 32.2 18.9 43 9.2 ESE 20 30 11 16 1011.6 1009.4 0.0
09/10:00am 33.0 33.3 19.5 45 9.0 ESE 17 26 9 14 1011.8 1009.6 0.0
09/09:30am 31.6 30.8 19.2 47 8.2 E 22 28 12 15 1011.8 1009.6 0.0
09/09:00am 29.8 30.0 20.1 56 6.5 E 19 26 10 14 1011.8 1009.6 0.0
09/08:30am 28.8 29.1 20.5 61 5.5 ESE 19 24 10 13 1011.6 1009.4 0.0
09/08:00am 28.9 29.8 20.1 59 5.8 ESE 15 20 8 11 1011.6 1009.4 0.0
09/07:30am 27.9 29.8 20.5 64 4.9 E 11 15 6 8 1011.4 1009.2 0.0
09/07:00am 27.1 29.3 20.4 66 4.4 ESE 9 13 5 7 1010.9 1008.7 0.0
09/06:30am 26.7 28.8 20.1 67 4.4 E 9 11 5 6 1010.5 1008.3 0.0
09/06:00am 27.2 29.2 20.0 64 4.8 E 9 13 5 7 1010.2 1008.0 0.0
09/05:30am 27.4 28.6 20.0 64 4.9 E 13 19 7 10 1010.0 1007.8 0.0
09/05:00am 27.7 28.2 20.0 63 5.1 ENE 17 20 9 11 1010.0 1007.8 0.0
09/04:30am 28.0 28.4 19.8 61 5.4 E 17 28 9 15 1009.8 1007.6 0.0
09/04:00am 28.2 28.0 19.4 59 5.8 ENE 19 26 10 14 1009.8 1007.6 0.0
09/03:30am 28.7 29.2 19.3 56 6.2 E 15 20 8 11 1009.7 1007.5 0.0
09/03:00am 29.3 28.4 18.1 51 7.2 ESE 20 28 11 15 1009.6 1007.4 0.0
09/02:30am 29.8 28.0 17.9 48 7.7 ESE 24 32 13 17 1009.7 1007.5 0.0
09/02:00am 30.0 29.1 17.8 48 7.9 ESE 19 24 10 13 1009.9 1007.7 0.0
09/01:30am 30.3 29.9 18.1 48 7.9 ESE 17 24 9 13 1010.0 1007.8 0.0
09/01:00am 30.7 29.9 18.1 47 8.2 ESE 19 26 10 14 1010.2 1008.0 0.0
09/12:30am 31.1 29.8 18.1 46 8.4 ESE 22 32 12 17 1010.5 1008.3 0.0
09/12:00am 31.1 29.3 17.8 45 8.6 SE 24 33 13 18 1010.6 1008.4 0.0
 
Date/Time
EST
Temp
°C
App
Temp
°C
Dew
Point
Rel
Hum
%
Delta-T
°C
Wind Press
QNH
hPa
Press
MSL
hPa
Rain
since 9 am
mm
Dir
 
Spd
km/h
Gust
km/h
Spd
kts
Gust
kts
08/11:30pm 31.3 29.4 17.6 44 8.8 SE 24 39 13 21 1010.7 1008.5 0.0
08/11:00pm 31.3 30.1 17.6 44 8.8 SSE 20 28 11 15 1010.7 1008.5 0.0
08/10:30pm 31.7 30.7 17.9 43 9.0 SSE 20 30 11 16 1010.6 1008.4 0.0
08/10:00pm 32.3 30.5 17.0 40 9.8 S 22 32 12 17 1010.3 1008.1 0.0
08/09:30pm 32.4 32.4 16.3 38 10.2 SSW 11 15 6 8 1009.9 1007.7 0.0
08/09:00pm 32.4 31.7 15.4 36 10.7 SSW 13 15 7 8 1009.7 1007.5 0.0
08/08:30pm 32.7 31.8 14.8 34 11.1 S 13 15 7 8 1009.3 1007.2 0.0
08/08:00pm 33.3 32.4 14.8 32 11.6 S 13 17 7 9 1009.0 1006.8 0.0
08/07:30pm 34.1 32.5 15.1 32 11.9 SSW 17 22 9 12 1008.7 1006.5 0.0
08/07:00pm 34.8 33.1 15.7 32 12.2 S 19 24 10 13 1008.3 1006.1 0.0
08/06:30pm 35.6 33.7 15.3 29 12.9 SSW 19 28 10 15 1008.0 1005.8 0.0
08/06:00pm 36.2 33.9 14.2 26 13.8 S 19 24 10 13 1007.8 1005.6 0.0
08/05:30pm 36.7 34.0 12.8 24 14.7 S 19 24 10 13 1007.8 1005.6 0.0
08/05:00pm 36.6 34.4 13.4 25 14.4 S 17 26 9 14 1007.8 1005.6 0.0
08/04:30pm 36.7 34.8 14.1 26 14.1 SSW 17 28 9 15 1008.0 1005.8 0.0
08/04:00pm 36.6 35.6 15.7 29 13.4 S 15 26 8 14 1008.1 1005.9 0.0
08/03:30pm 36.6 34.7 15.1 27 13.6 SSE 19 28 10 15 1008.3 1006.1 0.0
08/03:00pm 36.5 36.4 16.1 29 13.1 S 11 24 6 13 1008.7 1006.5 0.0
08/02:30pm 35.6 35.3 17.3 33 11.9 S 15 28 8 15 1009.1 1006.9 0.0
08/02:00pm 34.8 33.2 16.1 32 12.0 SSE 19 28 10 15 1009.8 1007.6 0.0
08/01:30pm 34.3 33.3 16.6 34 11.4 S 17 26 9 14 1010.3 1008.1 0.0
08/01:00pm 34.0 34.4 18.1 39 10.4 SSW 13 24 7 13 1010.7 1008.5 0.0

Other Formats:

Comma delimited format used in spreadsheet applications
http://www.bom.gov.au/fwo/IDQ60801/IDQ60801.94336.axf

JavaScript Object Notation format (JSON) in row-major order
http://www.bom.gov.au/fwo/IDQ60801/IDQ60801.94336.json